Time;durP1;ratioP1;P1;durP2;ratioP2;P2;SDS_P1;SDS_P2;PMS_P1;PMS_P2;Temp;Humidity;BMP_temperature;BMP_pressure;BME280_temperature;BME280_humidity;BME280_pressure;Samples;Min_cycle;Max_cycle;Signal;HPM_P1;HPM_P2
2020/12/06 00:01:13;;;;;;;6.90;6.20;;;3.10;99.90;;;;;;5013963;28;20580;-91
2020/12/06 00:03:40;;;;;;;7.57;6.50;;;3.00;99.90;;;;;;5014655;28;20513;-90
2020/12/06 00:06:06;;;;;;;7.37;6.00;;;3.00;99.90;;;;;;5014525;28;20421;-88
2020/12/06 00:08:33;;;;;;;11.70;6.80;;;3.00;99.90;;;;;;5014615;28;20436;-90
2020/12/06 00:11:00;;;;;;;10.63;7.10;;;3.00;99.90;;;;;;5014590;28;20475;-89
2020/12/06 00:13:26;;;;;;;8.67;7.27;;;3.00;99.90;;;;;;5014699;28;20513;-88
2020/12/06 00:15:53;;;;;;;8.60;7.17;;;3.20;99.90;;;;;;5014726;28;20461;-89
2020/12/06 00:18:19;;;;;;;9.23;7.40;;;3.20;99.90;;;;;;5014593;28;20440;-88
2020/12/06 00:20:46;;;;;;;12.57;7.30;;;3.20;99.90;;;;;;5014294;28;20503;-89
2020/12/06 00:23:12;;;;;;;10.17;7.23;;;3.20;99.90;;;;;;5014699;28;20974;-90
2020/12/06 00:25:40;;;;;;;8.37;7.27;;;3.10;99.90;;;;;;5014835;28;20916;-88
2020/12/06 00:28:06;;;;;;;8.17;7.00;;;3.00;99.90;;;;;;5014454;28;20446;-90
2020/12/06 00:30:32;;;;;;;7.60;6.90;;;3.00;99.90;;;;;;5014429;28;20469;-90
2020/12/06 00:32:59;;;;;;;8.33;7.20;;;3.00;99.90;;;;;;5014554;28;20437;-89
2020/12/06 00:35:25;;;;;;;7.20;6.50;;;3.00;99.90;;;;;;5014373;28;20442;-88
2020/12/06 00:37:52;;;;;;;11.10;9.40;;;3.00;99.90;;;;;;5013562;28;20467;-88
2020/12/06 00:40:18;;;;;;;9.40;7.97;;;3.10;99.90;;;;;;5014772;28;20228;-90
2020/12/06 00:42:45;;;;;;;8.43;7.03;;;3.10;99.90;;;;;;5013887;28;20455;-88
2020/12/06 00:45:12;;;;;;;8.10;6.83;;;3.20;99.90;;;;;;5014078;28;20456;-90
2020/12/06 00:47:38;;;;;;;8.33;7.27;;;3.10;99.90;;;;;;5014282;28;20452;-89
2020/12/06 00:50:06;;;;;;;8.10;7.27;;;3.00;99.90;;;;;;5014235;28;20462;-90
2020/12/06 00:52:32;;;;;;;7.33;6.67;;;3.00;99.90;;;;;;5014106;28;20429;-89
2020/12/06 00:54:59;;;;;;;9.20;7.47;;;3.00;99.90;;;;;;5014509;28;20434;-90
2020/12/06 00:57:25;;;;;;;9.43;7.07;;;2.80;99.90;;;;;;5014127;28;20445;-90
2020/12/06 00:59:53;;;;;;;9.63;7.10;;;2.80;99.90;;;;;;5013882;28;20452;-92
2020/12/06 01:02:19;;;;;;;9.50;7.17;;;2.80;99.90;;;;;;5016085;28;20492;-89
2020/12/06 01:04:46;;;;;;;9.80;8.23;;;2.80;99.90;;;;;;5018268;28;20559;-89
2020/12/06 01:07:12;;;;;;;10.67;8.90;;;2.80;99.90;;;;;;5017290;28;20441;-90
2020/12/06 01:09:39;;;;;;;13.00;11.70;;;2.80;99.90;;;;;;5016496;28;20429;-89
2020/12/06 01:12:05;;;;;;;10.63;9.30;;;2.90;99.90;;;;;;5017314;28;20208;-91
2020/12/06 01:14:31;;;;;;;11.63;9.10;;;3.00;99.90;;;;;;5017269;28;20438;-89
2020/12/06 01:16:59;;;;;;;11.47;8.50;;;2.90;99.90;;;;;;5017455;28;20441;-90
2020/12/06 01:19:25;;;;;;;10.23;8.30;;;3.00;99.90;;;;;;5017289;28;20444;-89
2020/12/06 01:21:53;;;;;;;12.20;8.47;;;2.90;99.90;;;;;;5016774;28;20493;-89
2020/12/06 01:24:19;;;;;;;9.47;8.33;;;2.70;99.90;;;;;;5016917;28;20517;-91
2020/12/06 01:26:47;;;;;;;10.20;7.97;;;2.60;99.90;;;;;;5017098;28;20790;-89
2020/12/06 01:29:13;;;;;;;10.03;7.83;;;2.50;99.90;;;;;;5016676;28;20893;-91
2020/12/06 01:31:44;;;;;;;11.73;8.30;;;2.40;99.90;;;;;;5016730;28;20453;-89
2020/12/06 01:34:11;;;;;;;12.23;8.90;;;2.50;99.90;;;;;;5016926;28;20445;-90
2020/12/06 01:36:38;;;;;;;11.97;9.20;;;2.50;99.90;;;;;;5016982;28;20441;-90
2020/12/06 01:39:04;;;;;;;9.80;8.80;;;2.50;99.90;;;;;;5017064;28;20537;-90
2020/12/06 01:41:31;;;;;;;12.90;11.60;;;2.40;99.90;;;;;;5016032;28;20463;-90
2020/12/06 01:43:58;;;;;;;10.73;9.63;;;2.40;99.90;;;;;;4999574;28;20449;-91
2020/12/06 01:46:25;;;;;;;11.30;8.60;;;2.40;99.90;;;;;;5017611;28;20434;-88
2020/12/06 01:48:53;;;;;;;12.73;9.57;;;2.30;99.90;;;;;;5017602;28;20758;-90
2020/12/06 01:51:22;;;;;;;10.50;8.93;;;2.30;99.90;;;;;;5016844;28;20553;-88
2020/12/06 01:53:50;;;;;;;11.53;8.57;;;2.30;99.90;;;;;;5016472;28;20812;-89
2020/12/06 01:56:16;;;;;;;9.73;8.73;;;2.20;99.90;;;;;;5016690;28;20421;-91
2020/12/06 01:58:43;;;;;;;10.27;9.20;;;2.20;99.90;;;;;;5016311;28;20447;-90
2020/12/06 02:01:10;;;;;;;9.33;8.10;;;2.10;99.90;;;;;;5016134;28;20504;-89
2020/12/06 02:03:36;;;;;;;9.87;8.30;;;2.10;99.90;;;;;;5016722;28;20438;-89
2020/12/06 02:06:04;;;;;;;11.37;8.53;;;2.20;99.90;;;;;;5016412;28;20437;-89
2020/12/06 02:08:31;;;;;;;12.13;9.17;;;2.10;99.90;;;;;;5016579;28;20440;-91
2020/12/06 02:10:58;;;;;;;10.93;8.73;;;2.10;99.90;;;;;;5016731;28;20844;-92
2020/12/06 02:13:24;;;;;;;9.83;8.53;;;2.10;99.90;;;;;;5016626;28;20441;-91
2020/12/06 02:15:51;;;;;;;9.90;8.63;;;2.10;99.90;;;;;;4998858;28;20433;-91
2020/12/06 02:18:18;;;;;;;13.43;9.17;;;2.00;99.90;;;;;;5015912;28;20982;-90
2020/12/06 02:20:45;;;;;;;10.00;8.90;;;2.00;99.90;;;;;;5015998;28;20580;-91
2020/12/06 02:23:12;;;;;;;11.23;8.43;;;2.00;99.90;;;;;;5015560;28;20843;-91
2020/12/06 02:25:39;;;;;;;9.73;8.17;;;1.90;99.90;;;;;;5016109;28;20447;-91
2020/12/06 02:28:07;;;;;;;11.77;8.57;;;1.90;99.90;;;;;;5015917;28;20430;-92
2020/12/06 02:30:34;;;;;;;9.97;8.50;;;1.90;99.90;;;;;;5016403;28;20466;-91
2020/12/06 02:33:02;;;;;;;10.73;9.27;;;1.80;99.90;;;;;;5016303;28;20465;-90
2020/12/06 02:35:28;;;;;;;10.57;9.47;;;1.90;99.90;;;;;;5016059;28;20433;-92
2020/12/06 02:37:56;;;;;;;10.33;8.33;;;1.70;99.90;;;;;;5016484;28;20437;-92
2020/12/06 02:40:22;;;;;;;11.90;9.90;;;1.70;99.90;;;;;;5015314;28;20468;-90
2020/12/06 02:42:49;;;;;;;11.37;9.63;;;1.80;99.90;;;;;;4998205;28;20445;-90
2020/12/06 02:45:15;;;;;;;11.67;9.57;;;1.70;99.90;;;;;;5015488;28;20430;-89
2020/12/06 02:47:42;;;;;;;10.50;8.87;;;1.70;99.90;;;;;;5015567;28;20448;-89
2020/12/06 02:50:08;;;;;;;10.70;9.60;;;1.60;99.90;;;;;;5015238;28;20469;-91
2020/12/06 02:52:35;;;;;;;11.77;9.13;;;1.60;99.90;;;;;;4998231;28;20954;-90
2020/12/06 02:55:03;;;;;;;10.40;9.30;;;1.70;99.90;;;;;;4998259;28;20432;-89
2020/12/06 02:57:30;;;;;;;10.73;9.20;;;1.60;99.90;;;;;;5015206;28;20939;-91
2020/12/06 02:59:56;;;;;;;12.47;9.97;;;1.60;99.90;;;;;;5014865;28;20926;-90
2020/12/06 03:02:22;;;;;;;16.07;10.53;;;1.70;99.90;;;;;;5015809;28;20492;-89
2020/12/06 03:04:49;;;;;;;10.57;9.37;;;1.70;99.90;;;;;;5016050;28;20939;-90
2020/12/06 03:07:16;;;;;;;13.37;10.40;;;1.60;99.90;;;;;;5015835;28;20896;-91
2020/12/06 03:09:42;;;;;;;13.47;10.57;;;1.50;99.90;;;;;;5015353;28;20442;-89
2020/12/06 03:12:09;;;;;;;12.97;11.27;;;1.50;99.90;;;;;;5015270;28;20453;-92
2020/12/06 03:14:36;;;;;;;13.97;11.80;;;1.40;99.90;;;;;;5015289;28;20809;-89
2020/12/06 03:17:02;;;;;;;16.90;15.10;;;1.50;99.90;;;;;;5014898;28;20425;-90
2020/12/06 03:19:28;;;;;;;17.80;13.10;;;1.60;99.90;;;;;;5015461;28;20565;-93
2020/12/06 03:21:55;;;;;;;17.13;12.33;;;1.60;99.90;;;;;;5014819;28;20505;-91
2020/12/06 03:24:21;;;;;;;15.93;12.20;;;1.60;99.90;;;;;;5014729;28;20455;-90
2020/12/06 03:26:47;;;;;;;12.83;11.53;;;1.50;99.90;;;;;;5015440;28;20529;-92
2020/12/06 03:29:15;;;;;;;13.90;12.10;;;1.60;99.90;;;;;;5014923;28;20512;-89
2020/12/06 03:31:41;;;;;;;14.93;12.10;;;1.60;99.90;;;;;;5014775;28;20488;-91
2020/12/06 03:34:07;;;;;;;14.27;12.37;;;1.60;99.90;;;;;;5014805;28;20501;-89
2020/12/06 03:36:34;;;;;;;15.20;12.27;;;1.60;99.90;;;;;;5014739;28;20464;-89
2020/12/06 03:39:00;;;;;;;14.83;12.37;;;1.50;99.90;;;;;;5015275;28;20441;-89
2020/12/06 03:41:27;;;;;;;18.30;12.33;;;1.50;99.90;;;;;;5014584;28;20978;-90
2020/12/06 03:43:54;;;;;;;13.43;11.57;;;1.40;99.90;;;;;;5015374;28;20446;-89
2020/12/06 03:46:21;;;;;;;14.40;12.13;;;1.40;99.90;;;;;;5014907;28;20924;-91
2020/12/06 03:48:47;;;;;;;14.60;11.57;;;1.30;99.90;;;;;;5014388;28;20516;-92
2020/12/06 03:51:14;;;;;;;15.43;11.80;;;1.40;99.90;;;;;;5014956;28;20818;-91
2020/12/06 03:53:40;;;;;;;14.00;11.67;;;1.30;99.90;;;;;;5014418;28;20422;-92
2020/12/06 03:56:06;;;;;;;14.57;11.53;;;1.30;99.90;;;;;;5015033;28;20445;-88
2020/12/06 03:58:33;;;;;;;14.57;11.93;;;1.30;99.90;;;;;;5014271;28;20453;-89
2020/12/06 04:00:59;;;;;;;14.00;11.90;;;1.30;99.90;;;;;;5013797;28;20503;-89
2020/12/06 04:03:27;;;;;;;14.60;12.17;;;1.50;99.90;;;;;;4996928;28;20448;-89
2020/12/06 04:05:53;;;;;;;14.20;11.70;;;1.40;99.90;;;;;;5014105;28;20897;-90
2020/12/06 04:08:20;;;;;;;18.10;13.37;;;1.50;99.90;;;;;;5014738;28;20910;-89
2020/12/06 04:10:46;;;;;;;16.10;12.63;;;1.40;99.90;;;;;;5014912;28;20475;-90
2020/12/06 04:13:13;;;;;;;13.70;11.33;;;1.40;99.90;;;;;;5015065;28;20425;-90
2020/12/06 04:15:39;;;;;;;16.13;12.77;;;1.30;99.90;;;;;;5015501;28;20802;-89
2020/12/06 04:18:06;;;;;;;19.87;13.53;;;1.30;99.90;;;;;;5014906;28;20446;-90
2020/12/06 04:20:33;;;;;;;19.48;17.42;;;1.50;99.90;;;;;;5013317;28;20923;-91
2020/12/06 04:22:59;;;;;;;17.53;15.17;;;1.40;99.90;;;;;;5014200;28;20650;-91
2020/12/06 04:25:26;;;;;;;19.60;15.40;;;1.50;99.90;;;;;;5014839;28;20451;-90
2020/12/06 04:27:52;;;;;;;18.13;14.77;;;1.60;99.90;;;;;;5014405;28;20429;-87
2020/12/06 04:30:19;;;;;;;20.43;15.40;;;1.40;99.90;;;;;;5014225;28;20475;-91
2020/12/06 04:32:45;;;;;;;19.07;13.77;;;1.50;99.90;;;;;;5014213;28;20438;-90
2020/12/06 04:35:11;;;;;;;22.97;15.10;;;1.50;99.90;;;;;;5013847;28;20460;-91
2020/12/06 04:37:38;;;;;;;20.47;14.03;;;1.30;99.90;;;;;;5017747;28;20441;-90
2020/12/06 04:40:05;;;;;;;16.63;13.10;;;1.20;99.90;;;;;;5018083;28;20981;-89
2020/12/06 04:42:32;;;;;;;17.27;14.77;;;1.20;99.90;;;;;;5017681;28;20492;-91
2020/12/06 04:44:59;;;;;;;20.93;12.40;;;1.10;99.90;;;;;;5017805;28;20429;-90
2020/12/06 04:47:47;;;;;;;24.87;15.80;;;1.10;99.90;;;;;;5017853;28;20900;-91
2020/12/06 04:50:23;;;;;;;16.57;13.10;;;1.10;99.90;;;;;;5017363;28;20460;-89
2020/12/06 04:52:57;;;;;;;16.47;12.60;;;1.10;99.90;;;;;;5017617;28;20821;-90
2020/12/06 04:55:26;;;;;;;14.90;13.10;;;1.10;99.90;;;;;;5018282;28;20446;-89
2020/12/06 04:57:55;;;;;;;13.77;11.77;;;1.00;99.90;;;;;;5017246;28;20425;-88
2020/12/06 05:00:31;;;;;;;17.37;11.83;;;1.00;99.90;;;;;;5017456;28;20994;-90
2020/12/06 05:02:59;;;;;;;18.93;12.00;;;0.90;99.90;;;;;;5017590;28;20473;-90
2020/12/06 05:05:34;;;;;;;15.90;11.87;;;1.00;99.90;;;;;;5017815;28;20445;-91
2020/12/06 05:08:07;;;;;;;14.87;11.87;;;1.00;99.90;;;;;;5016737;28;20453;-89
2020/12/06 05:10:39;;;;;;;13.77;12.37;;;1.00;99.90;;;;;;5017473;28;20548;-90
2020/12/06 05:13:06;;;;;;;16.83;12.83;;;0.90;99.90;;;;;;5017405;28;20457;-91
2020/12/06 05:15:33;;;;;;;14.30;11.70;;;0.80;99.90;;;;;;5017275;28;20829;-90
2020/12/06 05:18:00;;;;;;;13.87;11.63;;;0.80;99.90;;;;;;5017366;28;20784;-91
2020/12/06 05:20:27;;;;;;;14.23;12.13;;;0.70;99.90;;;;;;5016815;28;20819;-89
2020/12/06 05:22:53;;;;;;;17.57;12.30;;;0.70;99.90;;;;;;5017316;28;20471;-91
2020/12/06 05:25:21;;;;;;;15.30;12.70;;;0.70;99.90;;;;;;5017044;28;20460;-89
2020/12/06 05:27:48;;;;;;;16.23;11.93;;;0.70;99.90;;;;;;5017512;28;20448;-88
2020/12/06 05:30:15;;;;;;;14.53;12.57;;;0.70;99.90;;;;;;5017864;28;20461;-91
2020/12/06 05:32:41;;;;;;;15.50;12.27;;;0.70;99.90;;;;;;5016822;28;20437;-89
2020/12/06 05:35:09;;;;;;;16.20;12.83;;;0.80;99.90;;;;;;5016952;28;20441;-91
2020/12/06 05:37:36;;;;;;;16.27;12.13;;;0.80;99.90;;;;;;5017166;28;20444;-92
2020/12/06 05:40:05;;;;;;;17.07;12.60;;;0.80;99.90;;;;;;5017303;28;20469;-92
2020/12/06 05:42:33;;;;;;;16.10;13.10;;;0.90;99.90;;;;;;5016844;28;20976;-89
2020/12/06 05:45:00;;;;;;;13.77;12.27;;;0.90;99.90;;;;;;5016788;28;20442;-89
2020/12/06 05:47:27;;;;;;;16.93;12.47;;;1.00;99.90;;;;;;5016594;28;20448;-91
2020/12/06 05:49:55;;;;;;;15.10;13.50;;;0.90;99.90;;;;;;5016819;28;20445;-92
2020/12/06 05:52:22;;;;;;;15.67;12.47;;;0.90;99.90;;;;;;5016993;28;20790;-91
2020/12/06 05:54:49;;;;;;;15.03;12.63;;;1.00;99.90;;;;;;5016579;28;20437;-90
2020/12/06 05:57:15;;;;;;;18.30;12.80;;;0.90;99.90;;;;;;5016695;28;20528;-90
2020/12/06 05:59:43;;;;;;;18.63;13.13;;;0.90;99.90;;;;;;5016383;28;20430;-92
2020/12/06 06:02:09;;;;;;;16.57;12.37;;;0.90;99.90;;;;;;5015994;28;20581;-89
2020/12/06 06:04:40;;;;;;;14.17;11.67;;;1.00;99.90;;;;;;5015933;28;20514;-90
2020/12/06 06:07:12;;;;;;;15.67;11.93;;;0.90;99.90;;;;;;5016530;28;20437;-91
2020/12/06 06:09:43;;;;;;;15.03;11.87;;;1.00;99.90;;;;;;5016571;28;20442;-91
2020/12/06 06:12:39;;;;;;;18.10;12.53;;;1.00;99.90;;;;;;5016453;28;20456;-90
2020/12/06 06:15:07;;;;;;;19.50;12.63;;;0.90;99.90;;;;;;4971854;28;20445;-91
2020/12/06 06:17:34;;;;;;;16.20;13.23;;;0.90;99.90;;;;;;5017344;28;20548;-89
2020/12/06 06:20:00;;;;;;;14.67;11.87;;;1.00;99.90;;;;;;5017617;28;20474;-91
2020/12/06 06:22:30;;;;;;;15.70;12.13;;;1.00;99.90;;;;;;5017361;28;20481;-92
2020/12/06 06:24:59;;;;;;;14.50;12.57;;;0.80;99.90;;;;;;5016882;28;20450;-91
2020/12/06 06:27:25;;;;;;;16.05;14.35;;;0.80;99.90;;;;;;5015939;28;20540;-92
2020/12/06 06:29:52;;;;;;;17.97;12.63;;;0.80;99.90;;;;;;5015911;28;20204;-91
2020/12/06 06:32:21;;;;;;;16.17;12.70;;;0.90;99.90;;;;;;4998204;28;20920;-89
2020/12/06 06:34:48;;;;;;;13.57;12.10;;;0.90;99.90;;;;;;5015774;28;20426;-91
2020/12/06 06:37:16;;;;;;;13.93;11.80;;;0.90;99.90;;;;;;5015659;28;20426;-90
2020/12/06 06:39:43;;;;;;;13.93;12.10;;;0.90;99.90;;;;;;5016417;28;20916;-92
2020/12/06 06:42:13;;;;;;;16.27;12.83;;;0.90;99.90;;;;;;5015807;28;20963;-91
2020/12/06 06:44:41;;;;;;;18.70;13.43;;;1.10;99.90;;;;;;5015620;28;21168;-89
2020/12/06 06:47:10;;;;;;;19.27;14.00;;;1.20;99.90;;;;;;5016983;28;20441;-91
2020/12/06 06:49:53;;;;;;;18.83;14.30;;;1.10;99.90;;;;;;5017798;28;20456;-91
2020/12/06 06:52:20;;;;;;;17.10;13.43;;;1.20;99.90;;;;;;5017321;28;20446;-92
2020/12/06 06:54:49;;;;;;;21.60;14.53;;;1.20;99.90;;;;;;5016511;28;20438;-89
2020/12/06 06:57:16;;;;;;;16.17;13.50;;;1.10;99.90;;;;;;5016586;28;20442;-91
2020/12/06 06:59:45;;;;;;;16.67;13.53;;;1.10;99.90;;;;;;5014588;28;20449;-90
2020/12/06 07:02:33;;;;;;;17.13;13.77;;;1.10;99.90;;;;;;5014873;28;20481;-92
2020/12/06 07:05:02;;;;;;;16.90;13.00;;;1.00;99.90;;;;;;5001699;28;20438;-91
2020/12/06 07:07:48;;;;;;;20.37;14.53;;;0.90;99.90;;;;;;5014707;28;20460;-91
2020/12/06 07:10:16;;;;;;;17.73;13.23;;;0.90;99.90;;;;;;5014632;28;20469;-90
2020/12/06 07:12:49;;;;;;;16.17;12.80;;;1.00;99.90;;;;;;4997549;28;20457;-90
2020/12/06 07:15:16;;;;;;;17.23;12.37;;;1.10;99.90;;;;;;5014875;28;20457;-90
2020/12/06 07:17:43;;;;;;;16.77;13.43;;;1.00;99.90;;;;;;5014964;28;20442;-88
2020/12/06 07:20:12;;;;;;;16.63;13.53;;;1.00;99.90;;;;;;5014670;28;20485;-90
2020/12/06 07:22:39;;;;;;;18.40;13.97;;;1.00;99.90;;;;;;4997506;28;20472;-91
2020/12/06 07:25:07;;;;;;;17.50;12.47;;;1.00;99.90;;;;;;5014681;28;20453;-90
2020/12/06 07:27:33;;;;;;;18.20;13.70;;;0.90;99.90;;;;;;5014943;28;20441;-91
2020/12/06 07:30:00;;;;;;;18.77;13.13;;;1.00;99.90;;;;;;5014880;28;20469;-90
2020/12/06 07:32:27;;;;;;;16.73;13.77;;;1.00;99.90;;;;;;5014637;28;20454;-89
2020/12/06 07:34:53;;;;;;;17.93;13.33;;;1.00;99.90;;;;;;5015418;28;20441;-90
2020/12/06 07:37:21;;;;;;;22.37;13.53;;;1.10;99.90;;;;;;5015467;28;20442;-88
2020/12/06 07:39:49;;;;;;;16.77;13.33;;;1.10;99.90;;;;;;5014478;28;20421;-88
2020/12/06 07:42:19;;;;;;;24.37;14.17;;;1.10;99.90;;;;;;5014526;28;20485;-88
2020/12/06 07:44:48;;;;;;;18.17;14.07;;;1.20;99.90;;;;;;5014754;28;20442;-90
2020/12/06 07:47:14;;;;;;;18.00;13.63;;;1.20;99.90;;;;;;5014286;28;20437;-89
2020/12/06 07:49:48;;;;;;;17.43;13.00;;;1.10;99.90;;;;;;5014171;28;20928;-88
2020/12/06 07:52:17;;;;;;;22.47;14.07;;;1.20;99.90;;;;;;5014493;28;20445;-88
2020/12/06 07:54:59;;;;;;;17.03;13.77;;;1.20;99.90;;;;;;5014421;28;20426;-88
2020/12/06 07:57:34;;;;;;;23.27;14.60;;;1.20;99.90;;;;;;5012986;28;20441;-91
2020/12/06 08:00:03;;;;;;;17.80;14.07;;;1.20;99.90;;;;;;5014230;28;20465;-90
2020/12/06 08:02:33;;;;;;;22.73;15.20;;;1.20;99.90;;;;;;5015350;28;20481;-90
2020/12/06 08:05:00;;;;;;;20.97;15.57;;;1.20;99.90;;;;;;5028528;28;20434;-92
2020/12/06 08:07:35;;;;;;;20.33;15.50;;;1.20;99.90;;;;;;5030617;28;20509;-91
2020/12/06 08:10:03;;;;;;;18.27;14.67;;;1.20;99.90;;;;;;5032367;28;20527;-88
2020/12/06 08:12:35;;;;;;;19.87;14.97;;;1.20;99.90;;;;;;5025973;28;20463;-93
2020/12/06 08:15:03;;;;;;;17.60;14.13;;;1.30;99.90;;;;;;5020784;28;20438;-92
2020/12/06 08:17:48;;;;;;;17.07;13.00;;;1.30;99.90;;;;;;5020532;28;20532;-90
2020/12/06 08:20:16;;;;;;;22.13;13.50;;;1.30;99.90;;;;;;5018628;28;20552;-91
2020/12/06 08:22:48;;;;;;;16.80;13.70;;;1.20;99.90;;;;;;5018425;28;20489;-91
2020/12/06 08:25:16;;;;;;;17.03;13.87;;;1.40;99.90;;;;;;5018824;28;20847;-90
2020/12/06 08:27:44;;;;;;;18.87;14.27;;;1.50;99.90;;;;;;5019363;28;20818;-91
2020/12/06 08:30:14;;;;;;;15.23;12.33;;;1.50;99.90;;;;;;5018729;28;20473;-91
2020/12/06 08:32:41;;;;;;;17.83;14.33;;;1.50;99.90;;;;;;5020552;28;20541;-90
2020/12/06 08:35:08;;;;;;;19.77;14.60;;;1.60;99.90;;;;;;5020765;28;20540;-92
2020/12/06 08:37:35;;;;;;;20.27;14.07;;;1.60;99.90;;;;;;5019720;28;20509;-91
2020/12/06 08:40:04;;;;;;;16.47;14.13;;;1.70;99.90;;;;;;5019744;28;20472;-91
2020/12/06 08:42:32;;;;;;;17.93;14.60;;;1.70;99.90;;;;;;5019512;28;20584;-93
2020/12/06 08:44:59;;;;;;;19.17;14.93;;;1.80;99.90;;;;;;5019473;28;20468;-91
2020/12/06 08:47:28;;;;;;;20.00;14.30;;;1.80;99.90;;;;;;5022501;28;20455;-89
2020/12/06 08:50:06;;;;;;;19.57;15.53;;;1.90;99.90;;;;;;5019394;28;20524;-89
2020/12/06 08:52:32;;;;;;;23.40;17.03;;;2.10;99.90;;;;;;5018958;28;20832;-94
2020/12/06 08:54:59;;;;;;;22.50;17.67;;;2.40;99.90;;;;;;5020033;28;20940;-91
2020/12/06 08:57:27;;;;;;;19.87;16.90;;;2.50;99.90;;;;;;5020831;28;20438;-92
2020/12/06 08:59:54;;;;;;;25.53;17.43;;;2.40;99.90;;;;;;5019671;28;20441;-92
2020/12/06 09:02:23;;;;;;;26.70;19.40;;;2.50;99.90;;;;;;5020371;28;20491;-95
2020/12/06 09:04:50;;;;;;;29.47;19.77;;;2.70;99.90;;;;;;5019552;28;20425;-91
2020/12/06 09:07:17;;;;;;;28.13;20.57;;;2.60;99.90;;;;;;5019639;28;20453;-90
2020/12/06 09:09:43;;;;;;;32.37;21.60;;;2.60;99.90;;;;;;5003867;28;20442;-90
2020/12/06 09:12:10;;;;;;;28.77;20.90;;;2.80;99.90;;;;;;5021020;28;20507;-92
2020/12/06 09:14:37;;;;;;;37.97;22.10;;;2.90;99.90;;;;;;5019920;28;20444;-90
2020/12/06 09:17:05;;;;;;;36.27;24.00;;;2.90;99.90;;;;;;5019661;28;20456;-91
2020/12/06 09:19:31;;;;;;;31.77;21.97;;;3.00;99.90;;;;;;5018226;28;20453;-89
2020/12/06 09:21:58;;;;;;;27.40;21.20;;;3.00;99.90;;;;;;5017752;28;20507;-93
2020/12/06 09:24:24;;;;;;;29.20;20.47;;;3.10;99.90;;;;;;5018602;28;20460;-91
2020/12/06 09:26:51;;;;;;;30.97;22.03;;;2.90;99.90;;;;;;5001001;28;20434;-91
2020/12/06 09:29:18;;;;;;;30.57;21.17;;;2.80;99.90;;;;;;5018961;28;20442;-90
2020/12/06 09:31:44;;;;;;;27.43;20.80;;;2.60;99.90;;;;;;5021666;28;20555;-88
2020/12/06 09:34:12;;;;;;;29.90;20.17;;;2.80;99.90;;;;;;5017616;28;20521;-89
2020/12/06 09:36:42;;;;;;;28.53;20.97;;;2.80;99.90;;;;;;5017170;28;20461;-93
2020/12/06 09:39:09;;;;;;;27.53;21.07;;;3.20;99.90;;;;;;5017198;28;20422;-92
2020/12/06 09:41:36;;;;;;;31.40;28.10;;;3.10;99.90;;;;;;5015650;28;20524;-91
2020/12/06 09:44:07;;;;;;;27.00;22.57;;;3.10;99.90;;;;;;5016664;28;20187;-90
2020/12/06 09:46:33;;;;;;;26.10;21.77;;;3.20;99.90;;;;;;5017378;28;20448;-89
2020/12/06 09:48:59;;;;;;;28.03;20.37;;;3.10;99.90;;;;;;5017911;28;20457;-90
2020/12/06 09:51:26;;;;;;;28.90;24.93;;;3.10;99.90;;;;;;5016974;28;20477;-90
2020/12/06 09:53:53;;;;;;;25.33;20.43;;;3.00;99.90;;;;;;5016480;28;20441;-88
2020/12/06 09:56:26;;;;;;;27.00;20.10;;;3.10;99.90;;;;;;5016736;28;20453;-92
2020/12/06 09:58:52;;;;;;;25.47;19.83;;;3.20;99.90;;;;;;5016585;28;20441;-89
2020/12/06 10:01:18;;;;;;;23.57;20.20;;;3.20;99.90;;;;;;5016291;28;20469;-90
2020/12/06 10:03:44;;;;;;;25.43;19.33;;;3.20;99.90;;;;;;5016804;28;20441;-90
2020/12/06 10:06:11;;;;;;;25.67;19.50;;;3.30;99.90;;;;;;5016452;28;20455;-88
2020/12/06 10:08:38;;;;;;;26.87;18.83;;;3.40;99.90;;;;;;5016017;28;20446;-89
2020/12/06 10:11:05;;;;;;;27.17;20.57;;;3.50;99.90;;;;;;4998741;28;20943;-91
2020/12/06 10:13:31;;;;;;;25.97;20.60;;;3.80;99.90;;;;;;5016131;28;20452;-91
2020/12/06 10:15:58;;;;;;;26.23;20.07;;;3.70;99.90;;;;;;5016577;28;20433;-86
2020/12/06 10:18:24;;;;;;;24.53;19.70;;;3.60;99.90;;;;;;5016553;28;20444;-90
2020/12/06 10:20:50;;;;;;;25.83;20.70;;;3.60;99.90;;;;;;5016129;28;20495;-88
2020/12/06 10:23:17;;;;;;;27.53;20.10;;;3.70;99.90;;;;;;5016093;28;20493;-88
2020/12/06 10:25:44;;;;;;;26.03;19.40;;;3.80;99.90;;;;;;5015804;28;20442;-90
2020/12/06 10:28:11;;;;;;;27.13;20.00;;;3.80;99.90;;;;;;5016571;28;20780;-89
2020/12/06 10:30:37;;;;;;;23.60;18.80;;;3.70;99.90;;;;;;5017015;28;20476;-91
2020/12/06 10:33:03;;;;;;;23.73;19.77;;;3.80;99.90;;;;;;5016904;28;20824;-88
2020/12/06 10:35:30;;;;;;;28.27;20.63;;;3.80;99.90;;;;;;5015726;28;20434;-91
2020/12/06 10:37:56;;;;;;;24.43;19.37;;;3.90;99.90;;;;;;5016124;28;20444;-89
2020/12/06 10:40:23;;;;;;;23.30;19.23;;;4.00;99.90;;;;;;5016372;28;20473;-90
2020/12/06 10:42:50;;;;;;;23.87;19.43;;;3.90;99.90;;;;;;5015895;28;20493;-89
2020/12/06 10:45:16;;;;;;;21.93;19.03;;;4.10;99.90;;;;;;5016360;28;20456;-89
2020/12/06 10:47:44;;;;;;;24.23;19.00;;;4.20;99.90;;;;;;5015568;28;20437;-89
2020/12/06 10:50:10;;;;;;;23.80;18.83;;;4.30;99.90;;;;;;5015875;28;20283;-88
2020/12/06 10:52:36;;;;;;;23.93;19.97;;;4.40;99.90;;;;;;5016389;28;20214;-90
2020/12/06 10:55:03;;;;;;;23.70;19.17;;;4.40;99.90;;;;;;5015841;28;20283;-89
2020/12/06 10:57:29;;;;;;;28.30;20.60;;;4.40;99.90;;;;;;5015788;28;20200;-87
2020/12/06 10:59:57;;;;;;;24.43;19.83;;;4.60;99.90;;;;;;5015139;28;20731;-91
2020/12/06 11:02:23;;;;;;;24.00;19.53;;;4.60;99.90;;;;;;5015702;28;20469;-90
2020/12/06 11:04:50;;;;;;;24.30;20.73;;;4.60;99.90;;;;;;5015549;28;20208;-88
2020/12/06 11:07:16;;;;;;;28.90;20.80;;;4.60;99.90;;;;;;5016128;28;20212;-88
2020/12/06 11:09:43;;;;;;;26.97;21.67;;;4.60;99.90;;;;;;5015677;28;20632;-90
2020/12/06 11:12:09;;;;;;;27.00;21.63;;;4.70;99.90;;;;;;5015448;28;20208;-88
2020/12/06 11:14:36;;;;;;;28.50;22.67;;;4.80;99.90;;;;;;4997984;28;20211;-90
2020/12/06 11:17:03;;;;;;;28.40;21.27;;;4.90;99.90;;;;;;5015826;28;20210;-89
2020/12/06 11:19:29;;;;;;;26.30;21.57;;;4.90;99.90;;;;;;5015243;28;20214;-91
2020/12/06 11:21:56;;;;;;;29.13;22.10;;;5.00;99.90;;;;;;4997584;28;20617;-90
2020/12/06 11:24:22;;;;;;;36.23;24.20;;;5.00;99.90;;;;;;5015668;28;20536;-89
2020/12/06 11:26:49;;;;;;;30.17;23.63;;;5.20;99.90;;;;;;5015309;28;20192;-91
2020/12/06 11:29:15;;;;;;;27.87;23.47;;;5.00;99.90;;;;;;4998006;28;20262;-91
2020/12/06 11:31:42;;;;;;;29.93;23.40;;;5.30;99.90;;;;;;5015438;28;20691;-89
2020/12/06 11:34:09;;;;;;;30.63;22.13;;;5.40;99.90;;;;;;5015495;28;20204;-90
2020/12/06 11:36:35;;;;;;;30.63;23.67;;;5.00;99.90;;;;;;5015190;28;20257;-90
2020/12/06 11:39:02;;;;;;;31.47;23.40;;;5.30;99.90;;;;;;5015028;28;20569;-89
2020/12/06 11:41:28;;;;;;;32.90;25.43;;;5.60;99.90;;;;;;5015110;28;20236;-89
2020/12/06 11:43:55;;;;;;;32.70;25.80;;;5.50;99.90;;;;;;5014629;28;20216;-89
2020/12/06 11:46:21;;;;;;;31.27;24.20;;;5.40;99.90;;;;;;5014906;28;20208;-91
2020/12/06 11:48:48;;;;;;;29.60;23.20;;;5.40;99.90;;;;;;5016256;28;20200;-88
2020/12/06 11:51:17;;;;;;;33.65;30.15;;;5.30;99.90;;;;;;5015446;28;20523;-90
2020/12/06 11:53:43;;;;;;;36.23;26.97;;;5.30;99.90;;;;;;5017291;28;20207;-89
2020/12/06 11:56:13;;;;;;;28.63;24.43;;;5.70;99.90;;;;;;5016722;28;20203;-91
2020/12/06 11:58:40;;;;;;;28.83;24.90;;;5.60;99.90;;;;;;5014299;28;20211;-88
2020/12/06 12:01:06;;;;;;;30.03;23.67;;;5.70;99.90;;;;;;4997433;28;20240;-90
2020/12/06 12:03:33;;;;;;;31.40;24.00;;;5.60;99.90;;;;;;5015452;28;20231;-91
2020/12/06 12:05:59;;;;;;;30.37;23.43;;;5.20;99.90;;;;;;5015143;28;20222;-88
2020/12/06 12:08:26;;;;;;;31.53;23.67;;;5.20;99.90;;;;;;5014712;28;20635;-90
2020/12/06 12:10:53;;;;;;;30.43;23.87;;;5.40;99.90;;;;;;5014651;28;20233;-90
2020/12/06 12:13:19;;;;;;;29.03;23.80;;;5.40;99.90;;;;;;5015286;28;20207;-90
2020/12/06 12:15:45;;;;;;;29.70;23.00;;;5.40;99.90;;;;;;5015245;28;20210;-91
2020/12/06 12:18:12;;;;;;;28.53;23.27;;;5.50;99.90;;;;;;5014329;28;20199;-91
2020/12/06 12:20:38;;;;;;;28.60;23.60;;;5.70;99.90;;;;;;5014554;28;20606;-89
2020/12/06 12:23:04;;;;;;;33.38;29.77;;;5.50;99.90;;;;;;5013553;28;20459;-91
2020/12/06 12:25:32;;;;;;;29.50;24.53;;;5.40;99.90;;;;;;5014575;28;20203;-90
2020/12/06 12:27:58;;;;;;;28.83;23.83;;;5.30;99.90;;;;;;5015607;28;20208;-90
2020/12/06 12:30:25;;;;;;;27.73;23.03;;;5.40;99.90;;;;;;5019607;28;20231;-89
2020/12/06 12:32:51;;;;;;;27.73;22.77;;;5.40;99.90;;;;;;5018376;28;20248;-89
2020/12/06 12:35:17;;;;;;;29.73;24.00;;;5.70;99.90;;;;;;5014726;28;20204;-90
2020/12/06 12:37:44;;;;;;;33.20;25.97;;;6.10;99.90;;;;;;5014141;28;20200;-91
2020/12/06 12:40:10;;;;;;;30.07;24.33;;;6.20;99.90;;;;;;5014515;28;20234;-90
2020/12/06 12:42:37;;;;;;;30.80;25.23;;;6.50;99.90;;;;;;5014431;28;20239;-91